^^
Meteo Knjazevac Station Historical Data
Daily Summary for May 09, 2021 Units:  Metric    English   Both
Daily Weekly Monthly Yearly Custom
  High: Low: Average:
Temperature: 5.5 °C 0.1 °C 1.4 °C
Dew Point: 1.4 °C -1.7 °C -0.7 °C
Humidity: 90% 75% 86%
Wind Speed: 4.8km/h 0km/h 1.9km/h
Wind Gust: 9.7km/h - -
Wind- - West
Pressure: 1026.3 hPa 1024.6 hPa -
Precipitation: 0 mm    
Historical Graphs
 
 
Tabular Data for May 09, 2021
Time Temperature Dew Point Pressure Wind Wind Speed Wind Gust Humidity Rainfall Rate (Hourly) solar Conditions
00:00 5.5 °C 1.4 °C 1024.6 hPa SW 3.2 km/h 6.4 km/h 75% 0 mm 0 W/m2
01:40 2.7 °C -0.2 °C 1024.9 hPa West 3.2 km/h 8 km/h 81% 0 mm 0 W/m2
01:50 2.5 °C -0.1 °C 1024.9 hPa WNW 4.8 km/h 9.7 km/h 83% 0 mm 0 W/m2
02:00 2.6 °C 0.2 °C 1024.9 hPa WNW 3.2 km/h 9.7 km/h 84% 0 mm 0 W/m2
02:10 2.5 °C -0.1 °C 1024.9 hPa WSW 1.6 km/h 4.8 km/h 83% 0 mm 0 W/m2
02:20 2.4 °C -0.1 °C 1024.9 hPa West 3.2 km/h 6.4 km/h 84% 0 mm 0 W/m2
02:30 2.3 °C -0.1 °C 1024.9 hPa Calm   6.4 km/h 84% 0 mm 0 W/m2
02:40 2.2 °C -0.2 °C 1024.9 hPa WNW 3.2 km/h 4.8 km/h 84% 0 mm 0 W/m2
02:50 2 °C -0.4 °C 1024.9 hPa West 1.6 km/h 4.8 km/h 84% 0 mm 0 W/m2
03:00 1.8 °C -0.6 °C 1024.9 hPa Calm   6.4 km/h 84% 0 mm 0 W/m2
03:10 1.7 °C -0.7 °C 1024.9 hPa West 3.2 km/h 4.8 km/h 84% 0 mm 0 W/m2
04:20 0.9 °C -1.2 °C 1025.3 hPa WNW 1.6 km/h 3.2 km/h 86% 0 mm 0 W/m2
04:30 0.8 °C -1.3 °C 1025.3 hPa WNW 1.6 km/h 3.2 km/h 86% 0 mm 0 W/m2
04:40 0.5 °C -1.6 °C 1025.3 hPa West 1.6 km/h 3.2 km/h 86% 0 mm 0 W/m2
04:50 0.4 °C -1.3 °C 1025.3 hPa Calm   3.2 km/h 88% 0 mm 0 W/m2
05:00 0.4 °C -1.3 °C 1025.3 hPa WNW 3.2 km/h 4.8 km/h 88% 0 mm 0 W/m2
05:10 0.4 °C -1.3 °C 1025.3 hPa WNW 1.6 km/h 4.8 km/h 88% 0 mm 0 W/m2
05:20 0.5 °C -1.1 °C 1025.6 hPa NW 1.6 km/h 3.2 km/h 89% 0 mm 7 W/m2
05:30 0.3 °C -1.4 °C 1025.6 hPa WNW 3.2 km/h 4.8 km/h 88% 0 mm 14 W/m2
05:40 0.2 °C -1.6 °C 1025.6 hPa West 1.6 km/h 4.8 km/h 88% 0 mm 20 W/m2
05:50 0.1 °C -1.7 °C 1026 hPa WNW 3.2 km/h 4.8 km/h 88% 0 mm 30 W/m2
06:00 0.1 °C -1.5 °C 1026 hPa WNW 1.6 km/h 4.8 km/h 89% 0 mm 60 W/m2
06:10 0.1 °C -1.5 °C 1026 hPa WNW 1.6 km/h 3.2 km/h 89% 0 mm 42 W/m2
06:20 0.2 °C -1.4 °C 1026 hPa Calm   3.2 km/h 89% 0 mm 100 W/m2
06:30 0.3 °C -1.3 °C 1026 hPa Calm   3.2 km/h 89% 0 mm 134 W/m2
06:40 0.5 °C -1.1 °C 1026 hPa Calm   3.2 km/h 89% 0 mm 161 W/m2
06:50 0.8 °C -0.7 °C 1026.3 hPa Calm   1.6 km/h 90% 0 mm 196 W/m2
07:00 1.2 °C -0.3 °C 1026.3 hPa West 3.2 km/h 6.4 km/h 90% 0 mm 222 W/m2
07:10 1.8 °C 0.3 °C 1026.3 hPa WNW 1.6 km/h 8 km/h 90% 0 mm 252 W/m2
07:20 2.3 °C 0.7 °C 1026.3 hPa WNW 4.8 km/h 8 km/h 89% 0 mm 293 W/m2
07:30 2.9 °C 1.3 °C 1026.3 hPa WNW 1.6 km/h 8 km/h 89% 0 mm 326 W/m2
Knjazevac, Serbia
Compliments of Weather Underground - 2 mb